createdAt,value
2023-04-20T00:00:53.891Z,26.77
2023-04-20T00:01:53.891Z,26.72
2023-04-20T00:02:54.140Z,26.81
2023-04-20T00:03:54.314Z,26.75
2023-04-20T00:04:53.919Z,26.73
2023-04-20T00:05:53.878Z,26.69
2023-04-20T00:06:53.886Z,26.67
2023-04-20T00:07:53.896Z,26.80
2023-04-20T00:08:53.885Z,26.62
2023-04-20T00:09:53.899Z,26.63
2023-04-20T00:10:53.888Z,26.76
2023-04-20T00:11:53.878Z,26.72
2023-04-20T00:12:53.884Z,26.75
2023-04-20T00:13:53.876Z,26.73
2023-04-20T00:14:53.897Z,26.70
2023-04-20T00:15:53.909Z,26.69
2023-04-20T00:16:53.926Z,26.80
2023-04-20T00:17:53.990Z,26.75
2023-04-20T00:18:53.883Z,26.69
2023-04-20T00:19:53.874Z,26.72
2023-04-20T00:20:53.885Z,26.75
2023-04-20T00:21:53.880Z,26.73
2023-04-20T00:22:53.879Z,26.72
2023-04-20T00:23:54.007Z,26.73
2023-04-20T00:24:53.881Z,26.75
2023-04-20T00:25:53.874Z,26.72
2023-04-20T00:26:53.886Z,26.70
2023-04-20T00:27:53.872Z,26.72
2023-04-20T00:28:53.878Z,26.72
2023-04-20T00:29:53.873Z,26.73
2023-04-20T00:30:53.919Z,26.72
2023-04-20T00:31:53.877Z,26.70
2023-04-20T00:32:53.959Z,26.73
2023-04-20T00:33:53.880Z,26.70
2023-04-20T00:34:53.871Z,26.81
2023-04-20T00:35:53.865Z,26.73
2023-04-20T00:36:53.872Z,26.72
2023-04-20T00:37:53.872Z,26.72
2023-04-20T00:38:53.871Z,26.73
2023-04-20T00:39:53.900Z,26.73
2023-04-20T00:40:53.874Z,26.73
2023-04-20T00:41:53.867Z,26.73
2023-04-20T00:42:53.870Z,26.73
2023-04-20T00:43:53.863Z,26.70
2023-04-20T00:44:53.873Z,26.73
2023-04-20T00:45:53.921Z,26.76
2023-04-20T00:46:53.867Z,26.76
2023-04-20T00:47:53.908Z,26.73
2023-04-20T00:48:53.902Z,26.75
2023-04-20T00:49:53.877Z,26.77
2023-04-20T00:50:53.870Z,26.72
2023-04-20T00:51:53.882Z,26.75
2023-04-20T00:52:53.924Z,26.73
2023-04-20T00:53:53.858Z,26.80
2023-04-20T00:54:53.906Z,26.81
2023-04-20T00:55:53.888Z,26.72
2023-04-20T00:56:53.955Z,26.77
2023-04-20T00:57:53.875Z,26.75
2023-04-20T00:58:53.867Z,26.70
2023-04-20T00:59:53.884Z,26.73
2023-04-20T01:00:53.900Z,26.77
2023-04-20T01:01:53.928Z,26.76
2023-04-20T01:02:54.143Z,26.69
2023-04-20T01:03:54.066Z,26.70
2023-04-20T01:04:53.876Z,26.72
2023-04-20T01:05:53.885Z,26.75
2023-04-20T01:06:53.880Z,26.72
2023-04-20T01:07:53.856Z,26.70
2023-04-20T01:08:53.870Z,26.73
2023-04-20T01:09:53.867Z,26.73
2023-04-20T01:10:53.880Z,26.73
2023-04-20T01:11:53.897Z,26.75
2023-04-20T01:12:53.866Z,26.76
2023-04-20T01:13:53.890Z,26.66
2023-04-20T01:14:53.859Z,26.70
2023-04-20T01:15:53.927Z,26.77
2023-04-20T01:16:53.861Z,26.76
2023-04-20T01:17:54.011Z,26.72
2023-04-20T01:18:53.891Z,26.73
2023-04-20T01:19:53.872Z,26.72
2023-04-20T01:20:53.882Z,26.73
2023-04-20T01:21:53.865Z,26.73
2023-04-20T01:22:53.884Z,26.75
2023-04-20T01:23:53.888Z,26.73
2023-04-20T01:24:53.882Z,26.70
2023-04-20T01:25:53.850Z,26.70
2023-04-20T01:26:53.858Z,26.76
2023-04-20T01:27:53.891Z,26.75
2023-04-20T01:28:53.884Z,26.75
2023-04-20T01:29:53.860Z,26.73
2023-04-20T01:30:53.890Z,26.75
2023-04-20T01:31:53.969Z,26.72
2023-04-20T01:32:53.888Z,26.72
2023-04-20T01:33:53.879Z,26.69
2023-04-20T01:34:53.848Z,26.75
2023-04-20T01:35:53.870Z,26.75
2023-04-20T01:36:53.874Z,26.70
2023-04-20T01:37:53.854Z,26.67
2023-04-20T01:38:53.854Z,26.70
2023-04-20T01:39:53.915Z,26.69
2023-04-20T01:40:53.849Z,26.73
2023-04-20T01:41:53.852Z,26.72
2023-04-20T01:42:53.844Z,26.77
2023-04-20T01:43:53.931Z,26.76
2023-04-20T01:44:53.861Z,26.81
2023-04-20T01:45:53.851Z,26.67
2023-04-20T01:46:53.925Z,26.73
2023-04-20T01:47:53.981Z,26.70
2023-04-20T01:48:53.844Z,26.72
2023-04-20T01:49:53.851Z,26.76
2023-04-20T01:50:53.864Z,26.76
2023-04-20T01:51:53.849Z,26.72
2023-04-20T01:52:53.854Z,26.67
2023-04-20T01:53:53.852Z,26.76
2023-04-20T01:54:53.865Z,26.69
2023-04-20T01:55:53.848Z,26.75
2023-04-20T01:56:53.846Z,26.73
2023-04-20T01:57:53.856Z,26.81
2023-04-20T01:58:53.843Z,26.81
2023-04-20T01:59:53.983Z,26.67
2023-04-20T02:00:53.890Z,26.67
2023-04-20T02:01:53.862Z,26.73
2023-04-20T02:02:54.034Z,26.72
2023-04-20T02:03:54.019Z,26.67
2023-04-20T02:04:53.839Z,26.70
2023-04-20T02:05:53.846Z,26.69
2023-04-20T02:06:53.843Z,26.76
2023-04-20T02:07:53.845Z,26.76
2023-04-20T02:08:53.839Z,26.75
2023-04-20T02:09:53.849Z,26.75
2023-04-20T02:10:53.846Z,26.70
2023-04-20T02:11:53.846Z,26.75
2023-04-20T02:12:53.839Z,26.72
2023-04-20T02:13:53.847Z,26.81
2023-04-20T02:14:53.833Z,26.69
2023-04-20T02:15:53.865Z,26.76
2023-04-20T02:16:53.885Z,26.72
2023-04-20T02:17:54.042Z,26.75
2023-04-20T02:18:53.836Z,26.80
2023-04-20T02:19:53.844Z,26.75
2023-04-20T02:20:53.848Z,26.70
2023-04-20T02:21:53.850Z,26.77
2023-04-20T02:22:53.829Z,26.63
2023-04-20T02:23:53.842Z,26.70
2023-04-20T02:24:53.828Z,26.70
2023-04-20T02:25:53.837Z,26.73
2023-04-20T02:26:53.827Z,26.73
2023-04-20T02:27:53.835Z,26.70
2023-04-20T02:28:53.828Z,26.75
2023-04-20T02:29:53.835Z,26.72
2023-04-20T02:30:53.845Z,26.72
2023-04-20T02:31:53.870Z,26.81
2023-04-20T02:32:53.961Z,26.72
2023-04-20T02:33:53.833Z,26.73
2023-04-20T02:34:53.830Z,26.69
2023-04-20T02:35:53.841Z,26.69
2023-04-20T02:36:53.827Z,26.73
2023-04-20T02:37:53.835Z,26.67
2023-04-20T02:38:53.822Z,26.73
2023-04-20T02:39:53.830Z,26.70
2023-04-20T02:40:53.822Z,26.72
2023-04-20T02:41:53.835Z,26.81
2023-04-20T02:42:53.820Z,26.73
2023-04-20T02:43:53.828Z,26.72
2023-04-20T02:44:53.829Z,26.77
2023-04-20T02:45:53.831Z,26.84
2023-04-20T02:46:53.935Z,26.72
2023-04-20T02:47:53.875Z,26.75
2023-04-20T02:48:53.822Z,26.73
2023-04-20T02:49:53.834Z,26.75
2023-04-20T02:50:53.821Z,26.77
2023-04-20T02:51:53.829Z,26.75
2023-04-20T02:52:53.820Z,26.69
2023-04-20T02:53:53.829Z,26.77
2023-04-20T02:54:53.820Z,26.70
2023-04-20T02:55:53.829Z,26.69
2023-04-20T02:56:53.924Z,26.70
2023-04-20T02:57:53.827Z,26.70
2023-04-20T02:58:53.832Z,26.69
2023-04-20T02:59:53.826Z,26.69
2023-04-20T03:00:53.820Z,26.76
2023-04-20T03:01:53.895Z,26.69
2023-04-20T03:02:53.936Z,26.73
2023-04-20T03:03:54.023Z,26.75
2023-04-20T03:04:53.934Z,26.80
2023-04-20T03:05:55.206Z,26.72
2023-04-20T03:06:53.835Z,26.75
2023-04-20T03:07:53.831Z,26.70
2023-04-20T03:08:53.817Z,26.72
2023-04-20T03:09:53.834Z,26.72
2023-04-20T03:10:53.833Z,26.75
2023-04-20T03:11:53.830Z,26.69
2023-04-20T03:12:53.817Z,26.69
2023-04-20T03:13:53.824Z,26.80
2023-04-20T03:14:53.818Z,26.76
2023-04-20T03:15:53.826Z,26.76
2023-04-20T03:16:53.881Z,26.75
2023-04-20T03:17:53.847Z,26.77
2023-04-20T03:18:53.813Z,26.80
2023-04-20T03:19:53.972Z,26.75
2023-04-20T03:20:53.843Z,26.69
2023-04-20T03:21:53.820Z,26.73
2023-04-20T03:22:53.811Z,26.73
2023-04-20T03:23:53.815Z,26.75
2023-04-20T03:24:53.849Z,26.72
2023-04-20T03:25:53.819Z,26.73
2023-04-20T03:26:53.814Z,26.75
2023-04-20T03:27:53.817Z,26.73
2023-04-20T03:28:53.821Z,26.72
2023-04-20T03:29:53.823Z,26.72
2023-04-20T03:30:53.806Z,26.75
2023-04-20T03:31:53.900Z,26.75
2023-04-20T03:32:53.879Z,26.73
2023-04-20T03:33:53.824Z,26.73
2023-04-20T03:34:53.805Z,26.67
2023-04-20T03:35:53.836Z,26.69
2023-04-20T03:36:53.808Z,26.75
2023-04-20T03:37:53.814Z,26.75
2023-04-20T03:38:53.802Z,26.77
2023-04-20T03:39:53.814Z,26.75
2023-04-20T03:40:53.806Z,26.76
2023-04-20T03:41:53.810Z,26.75
2023-04-20T03:42:53.813Z,26.76
2023-04-20T03:43:53.810Z,26.77
2023-04-20T03:44:53.800Z,26.66
2023-04-20T03:45:53.875Z,26.73
2023-04-20T03:46:53.805Z,26.73
2023-04-20T03:47:53.898Z,26.72
2023-04-20T03:48:53.847Z,26.75
2023-04-20T03:49:53.806Z,26.70
2023-04-20T03:50:53.798Z,26.77
2023-04-20T03:51:53.833Z,26.72
2023-04-20T03:52:53.815Z,26.73
2023-04-20T03:53:53.806Z,26.70
2023-04-20T03:54:53.812Z,26.75
2023-04-20T03:55:53.804Z,26.81
2023-04-20T03:56:53.809Z,26.75
2023-04-20T03:57:53.807Z,26.72
2023-04-20T03:58:53.801Z,26.70
2023-04-20T03:59:53.815Z,26.70
2023-04-20T04:00:53.803Z,26.72
2023-04-20T04:01:53.848Z,26.73
2023-04-20T04:02:54.051Z,26.81
2023-04-20T04:03:54.138Z,26.76
2023-04-20T04:04:53.996Z,26.81
2023-04-20T04:05:53.804Z,26.67
2023-04-20T04:06:53.795Z,26.69
2023-04-20T04:07:53.930Z,26.69
2023-04-20T04:08:53.796Z,26.72
2023-04-20T04:09:53.809Z,26.80
2023-04-20T04:10:53.796Z,26.70
2023-04-20T04:11:53.801Z,26.73
2023-04-20T04:12:53.799Z,26.73
2023-04-20T04:13:53.805Z,26.75
2023-04-20T04:14:53.797Z,26.69
2023-04-20T04:15:53.803Z,26.72
2023-04-20T04:16:53.823Z,26.69
2023-04-20T04:17:53.910Z,26.75
2023-04-20T04:18:53.795Z,26.69
2023-04-20T04:19:53.802Z,26.80
2023-04-20T04:20:53.791Z,26.76
2023-04-20T04:21:53.794Z,26.77
2023-04-20T04:22:53.791Z,26.72
2023-04-20T04:23:53.830Z,26.67
2023-04-20T04:24:53.800Z,26.72
2023-04-20T04:25:53.806Z,26.65
2023-04-20T04:26:53.790Z,26.63
2023-04-20T04:27:53.798Z,26.63
2023-04-20T04:28:53.790Z,26.62
2023-04-20T04:29:53.804Z,26.66
2023-04-20T04:30:53.797Z,26.57
2023-04-20T04:31:54.158Z,26.55
2023-04-20T04:32:53.820Z,26.54
2023-04-20T04:33:53.796Z,26.50
2023-04-20T04:34:53.787Z,26.55
2023-04-20T04:35:53.862Z,26.55
2023-04-20T04:36:53.786Z,26.48
2023-04-20T04:37:53.793Z,26.55
2023-04-20T04:38:53.786Z,26.55
2023-04-20T04:39:53.826Z,26.55
2023-04-20T04:40:53.787Z,26.50
2023-04-20T04:41:53.792Z,26.50
2023-04-20T04:42:53.785Z,26.50
2023-04-20T04:43:53.791Z,26.51
2023-04-20T04:44:53.830Z,26.48
2023-04-20T04:45:53.840Z,26.52
2023-04-20T04:46:53.783Z,26.44
2023-04-20T04:47:53.945Z,26.52
2023-04-20T04:48:53.783Z,26.47
2023-04-20T04:49:53.788Z,26.48
2023-04-20T04:50:53.787Z,26.48
2023-04-20T04:51:53.787Z,26.47
2023-04-20T04:52:53.782Z,26.48
2023-04-20T04:53:53.787Z,26.47
2023-04-20T04:54:53.780Z,26.47
2023-04-20T04:55:53.811Z,26.36
2023-04-20T04:56:53.782Z,26.43
2023-04-20T04:57:53.790Z,26.43
2023-04-20T04:58:53.776Z,26.45
2023-04-20T04:59:53.789Z,26.45
2023-04-20T05:00:53.778Z,26.44
2023-04-20T05:01:53.826Z,26.45
2023-04-20T05:02:53.960Z,26.45
2023-04-20T05:03:53.915Z,26.43
2023-04-20T05:04:53.851Z,26.45
2023-04-20T05:05:53.787Z,26.37
2023-04-20T05:06:53.772Z,26.43
2023-04-20T05:07:53.783Z,26.37
2023-04-20T05:08:53.783Z,26.43
2023-04-20T05:09:53.793Z,26.39
2023-04-20T05:10:53.771Z,26.35
2023-04-20T05:11:53.804Z,26.40
2023-04-20T05:12:53.778Z,26.36
2023-04-20T05:13:53.771Z,26.39
2023-04-20T05:14:53.784Z,26.39
2023-04-20T05:15:53.786Z,26.36
2023-04-20T05:16:53.765Z,26.39
2023-04-20T05:17:53.824Z,26.39
2023-04-20T05:18:53.766Z,26.33
2023-04-20T05:19:53.790Z,26.36
2023-04-20T05:20:53.770Z,26.30
2023-04-20T05:21:53.770Z,26.29
2023-04-20T05:22:53.780Z,26.37
2023-04-20T05:23:53.770Z,26.29
2023-04-20T05:24:53.764Z,26.37
2023-04-20T05:25:53.768Z,26.26
2023-04-20T05:26:53.757Z,26.35
2023-04-20T05:27:53.786Z,26.33
2023-04-20T05:28:53.762Z,26.33
2023-04-20T05:29:53.778Z,26.33
2023-04-20T05:30:53.761Z,26.35
2023-04-20T05:31:53.825Z,26.43
2023-04-20T05:32:53.775Z,26.45
2023-04-20T05:33:53.781Z,26.39
2023-04-20T05:34:53.770Z,26.45
2023-04-20T05:35:53.770Z,26.44
2023-04-20T05:36:53.754Z,26.51
2023-04-20T05:37:53.794Z,26.52
2023-04-20T05:38:53.760Z,26.55
2023-04-20T05:39:53.761Z,26.60
2023-04-20T05:40:53.753Z,26.54
2023-04-20T05:41:53.761Z,26.57
2023-04-20T05:42:53.757Z,26.57
2023-04-20T05:43:53.791Z,26.51
2023-04-20T05:44:53.752Z,26.57
2023-04-20T05:45:53.808Z,26.58
2023-04-20T05:46:53.757Z,26.58
2023-04-20T05:47:53.851Z,26.62
2023-04-20T05:48:53.746Z,26.65
2023-04-20T05:49:53.756Z,26.65
2023-04-20T05:50:53.766Z,26.76
2023-04-20T05:51:53.757Z,26.75
2023-04-20T05:52:53.752Z,26.77
2023-04-20T05:53:53.750Z,26.76
2023-04-20T05:54:53.755Z,26.72
2023-04-20T05:55:53.846Z,26.77
2023-04-20T05:56:53.749Z,26.76
2023-04-20T05:57:53.766Z,26.76
2023-04-20T05:58:53.764Z,26.80
2023-04-20T05:59:53.821Z,26.81
2023-04-20T06:00:53.752Z,26.76
2023-04-20T06:01:53.763Z,26.85
2023-04-20T06:02:53.923Z,26.77
2023-04-20T06:03:53.914Z,26.85
2023-04-20T06:04:53.829Z,26.82
2023-04-20T06:05:53.745Z,26.87
2023-04-20T06:06:53.754Z,26.91
2023-04-20T06:07:53.744Z,26.95
2023-04-20T06:08:53.751Z,26.91
2023-04-20T06:09:53.743Z,26.94
2023-04-20T06:10:53.750Z,26.91
2023-04-20T06:11:53.740Z,26.92
2023-04-20T06:12:53.751Z,27.00
2023-04-20T06:13:53.741Z,26.95
2023-04-20T06:14:53.770Z,26.94
2023-04-20T06:15:53.813Z,26.94
2023-04-20T06:16:53.750Z,26.94
2023-04-20T06:17:53.789Z,26.95
2023-04-20T06:18:53.748Z,27.00
2023-04-20T06:19:53.746Z,26.95
2023-04-20T06:20:53.749Z,26.97
2023-04-20T06:21:53.743Z,27.06
2023-04-20T06:22:53.751Z,27.09
2023-04-20T06:23:53.743Z,27.09
2023-04-20T06:24:53.750Z,26.99
2023-04-20T06:25:53.740Z,27.12
2023-04-20T06:26:53.757Z,27.06
2023-04-20T06:27:53.742Z,27.04
2023-04-20T06:28:53.747Z,27.14
2023-04-20T06:29:53.742Z,27.06
2023-04-20T06:30:53.778Z,27.12
2023-04-20T06:31:53.836Z,27.03
2023-04-20T06:32:53.775Z,27.19
2023-04-20T06:33:53.750Z,27.06
2023-04-20T06:34:53.748Z,27.12
2023-04-20T06:35:53.737Z,27.13
2023-04-20T06:36:53.750Z,27.13
2023-04-20T06:37:53.734Z,27.18
2023-04-20T06:38:53.742Z,27.21
2023-04-20T06:39:53.741Z,27.21
2023-04-20T06:40:53.741Z,27.21
2023-04-20T06:41:53.753Z,27.21
2023-04-20T06:42:53.748Z,27.19
2023-04-20T06:43:53.738Z,27.25
2023-04-20T06:44:53.743Z,27.22
2023-04-20T06:45:53.735Z,27.19
2023-04-20T06:46:53.752Z,27.32
2023-04-20T06:47:53.901Z,27.22
2023-04-20T06:48:53.743Z,27.25
2023-04-20T06:49:53.733Z,27.19
2023-04-20T06:50:53.741Z,27.25
2023-04-20T06:51:53.733Z,27.25
2023-04-20T06:52:53.756Z,27.27
2023-04-20T06:53:53.733Z,27.21
2023-04-20T06:54:53.744Z,27.22
2023-04-20T06:55:53.882Z,27.34
2023-04-20T06:56:53.747Z,27.32
2023-04-20T06:57:53.735Z,27.31
2023-04-20T06:58:54.127Z,27.29
2023-04-20T06:59:53.762Z,27.32
2023-04-20T07:00:53.751Z,27.39
2023-04-20T07:01:53.771Z,27.34
2023-04-20T07:02:53.832Z,27.28
2023-04-20T07:03:53.994Z,27.37
2023-04-20T07:04:53.929Z,27.36
2023-04-20T07:05:53.742Z,27.32
2023-04-20T07:06:54.287Z,27.32
2023-04-20T07:07:53.741Z,27.32
2023-04-20T07:08:53.744Z,27.41
2023-04-20T07:09:53.738Z,27.36
2023-04-20T07:10:53.739Z,27.37
2023-04-20T07:11:53.735Z,27.36
2023-04-20T07:12:53.744Z,27.36
2023-04-20T07:13:53.735Z,27.36
2023-04-20T07:14:53.740Z,27.34
2023-04-20T07:15:53.754Z,27.40
2023-04-20T07:16:53.885Z,27.32
2023-04-20T07:17:53.792Z,27.32
2023-04-20T07:18:53.742Z,27.31
2023-04-20T07:19:53.766Z,27.34
2023-04-20T07:20:53.740Z,27.34
2023-04-20T07:21:53.734Z,27.24
2023-04-20T07:22:53.747Z,27.27
2023-04-20T07:23:53.751Z,27.24
2023-04-20T07:24:53.741Z,27.28
2023-04-20T07:25:53.740Z,27.21
2023-04-20T07:26:53.741Z,27.24
2023-04-20T07:27:53.744Z,27.19
2023-04-20T07:28:53.744Z,27.13
2023-04-20T07:29:53.736Z,27.25
2023-04-20T07:30:53.745Z,27.13
2023-04-20T07:31:53.789Z,27.19
2023-04-20T07:32:53.823Z,27.13
2023-04-20T07:33:53.734Z,27.21
2023-04-20T07:34:53.741Z,27.21
2023-04-20T07:35:53.899Z,27.14
2023-04-20T07:36:53.746Z,27.13
2023-04-20T07:37:53.733Z,27.17
2023-04-20T07:38:53.743Z,27.07
2023-04-20T07:39:53.739Z,27.17
2023-04-20T07:40:53.750Z,27.09
2023-04-20T07:41:53.737Z,27.10
2023-04-20T07:42:53.742Z,27.13
2023-04-20T07:43:53.743Z,27.12
2023-04-20T07:44:53.745Z,27.09
2023-04-20T07:45:53.782Z,27.10
2023-04-20T07:46:53.743Z,27.06
2023-04-20T07:47:53.795Z,27.09
2023-04-20T07:48:54.113Z,27.07
2023-04-20T07:49:53.743Z,27.10
2023-04-20T07:50:53.747Z,27.12
2023-04-20T07:51:56.837Z,27.02
2023-04-20T07:52:53.755Z,27.02
2023-04-20T07:53:53.999Z,27.12
2023-04-20T07:54:53.755Z,27.03
2023-04-20T07:55:53.736Z,27.00
2023-04-20T07:56:53.749Z,27.00
2023-04-20T07:57:53.735Z,27.04
2023-04-20T07:58:53.743Z,27.09
2023-04-20T07:59:53.757Z,27.12
2023-04-20T08:00:53.763Z,27.13
2023-04-20T08:01:55.831Z,27.13
2023-04-20T08:02:53.933Z,27.14
2023-04-20T08:03:53.869Z,27.10
2023-04-20T08:04:53.922Z,27.17
2023-04-20T08:05:53.837Z,27.18
2023-04-20T08:06:53.911Z,27.12
2023-04-20T08:07:53.844Z,27.17
2023-04-20T08:08:53.747Z,27.06
2023-04-20T08:09:53.737Z,27.09
2023-04-20T08:10:53.742Z,27.10
2023-04-20T08:11:53.734Z,27.12
2023-04-20T08:12:53.749Z,27.13
2023-04-20T08:13:53.739Z,27.13
2023-04-20T08:14:53.738Z,27.14
2023-04-20T08:15:53.741Z,27.14
2023-04-20T08:16:53.744Z,27.14
2023-04-20T08:17:53.733Z,27.21
2023-04-20T08:18:53.746Z,27.19
2023-04-20T08:19:53.731Z,27.22
2023-04-20T08:20:53.744Z,27.19
2023-04-20T08:21:53.732Z,27.21
2023-04-20T08:22:53.744Z,27.24
2023-04-20T08:23:53.756Z,27.24
2023-04-20T08:24:53.741Z,27.25
2023-04-20T08:25:53.737Z,27.24
2023-04-20T08:26:53.748Z,27.22
2023-04-20T08:27:53.736Z,27.24
2023-04-20T08:28:53.744Z,27.25
2023-04-20T08:29:53.740Z,27.24
2023-04-20T08:30:53.756Z,27.19
2023-04-20T08:31:53.827Z,27.21
2023-04-20T08:32:53.903Z,27.21
2023-04-20T08:33:53.734Z,27.25
2023-04-20T08:34:53.737Z,27.14
2023-04-20T08:35:53.738Z,27.13
2023-04-20T08:36:53.743Z,27.10
2023-04-20T08:37:53.738Z,27.13
2023-04-20T08:38:53.750Z,27.17
2023-04-20T08:39:53.780Z,27.06
2023-04-20T08:40:53.737Z,27.09
2023-04-20T08:41:53.814Z,27.12
2023-04-20T08:42:53.742Z,27.07
2023-04-20T08:43:53.731Z,27.06
2023-04-20T08:44:53.740Z,27.12
2023-04-20T08:45:53.734Z,27.06
2023-04-20T08:46:53.768Z,27.00
2023-04-20T08:47:53.783Z,26.95
2023-04-20T08:48:53.738Z,26.95
2023-04-20T08:49:53.730Z,26.95
2023-04-20T08:50:53.738Z,26.92
2023-04-20T08:51:53.729Z,26.95
2023-04-20T08:52:53.737Z,26.88
2023-04-20T08:53:53.730Z,26.87
2023-04-20T08:54:57.597Z,27.00
2023-04-20T08:55:53.840Z,26.95
2023-04-20T08:56:53.739Z,26.88
2023-04-20T08:57:53.731Z,26.94
2023-04-20T08:58:53.735Z,26.91
2023-04-20T08:59:53.726Z,26.91
2023-04-20T09:00:53.735Z,26.91
2023-04-20T09:01:53.757Z,26.92
2023-04-20T09:02:53.837Z,26.89
2023-04-20T09:03:53.859Z,26.85
2023-04-20T09:04:53.776Z,26.77
2023-04-20T09:05:53.725Z,26.82
2023-04-20T09:06:53.742Z,26.84
2023-04-20T09:07:53.726Z,26.81
2023-04-20T09:08:53.732Z,26.84
2023-04-20T09:09:53.724Z,26.81
2023-04-20T09:10:53.737Z,26.82
2023-04-20T09:11:53.746Z,26.81
2023-04-20T09:12:53.743Z,26.76
2023-04-20T09:13:53.722Z,26.76
2023-04-20T09:14:53.745Z,26.73
2023-04-20T09:15:53.750Z,26.67
2023-04-20T09:16:53.876Z,26.76
2023-04-20T09:17:53.748Z,26.76
2023-04-20T09:18:53.732Z,26.77
2023-04-20T09:19:53.777Z,26.81
2023-04-20T09:20:53.732Z,26.81
2023-04-20T09:21:53.721Z,26.77
2023-04-20T09:22:53.728Z,26.73
2023-04-20T09:23:53.720Z,26.81
2023-04-20T09:24:53.723Z,26.76
2023-04-20T09:25:53.732Z,26.75
2023-04-20T09:26:53.724Z,26.80
2023-04-20T09:27:53.745Z,26.80
2023-04-20T09:28:53.725Z,26.80
2023-04-20T09:29:53.721Z,26.84
2023-04-20T09:30:53.726Z,26.84
2023-04-20T09:31:53.760Z,26.84
2023-04-20T09:32:53.769Z,26.89
2023-04-20T09:33:53.717Z,26.82
2023-04-20T09:34:53.726Z,26.82
2023-04-20T09:35:53.729Z,26.84
2023-04-20T09:36:53.724Z,26.81
2023-04-20T09:37:53.714Z,26.88
2023-04-20T09:38:53.727Z,26.85
2023-04-20T09:39:53.719Z,26.84
2023-04-20T09:40:53.724Z,26.81
2023-04-20T09:41:53.717Z,26.84
2023-04-20T09:42:53.722Z,26.89
2023-04-20T09:43:53.758Z,26.88
2023-04-20T09:44:53.722Z,26.88
2023-04-20T09:45:53.762Z,26.81
2023-04-20T09:46:53.722Z,26.87
2023-04-20T09:47:53.741Z,26.88
2023-04-20T09:48:53.744Z,26.92
2023-04-20T09:49:53.712Z,26.91
2023-04-20T09:50:53.720Z,26.89
2023-04-20T09:51:53.711Z,26.94
2023-04-20T09:52:53.716Z,26.94
2023-04-20T09:53:53.710Z,26.92
2023-04-20T09:54:53.720Z,26.97
2023-04-20T09:55:53.710Z,26.94
2023-04-20T09:56:53.720Z,26.99
2023-04-20T09:57:53.712Z,26.94
2023-04-20T09:58:53.714Z,26.99
2023-04-20T09:59:53.776Z,26.95
2023-04-20T10:00:53.758Z,26.94
2023-04-20T10:01:53.710Z,27.00
2023-04-20T10:02:53.881Z,26.94
2023-04-20T10:03:53.880Z,26.97
2023-04-20T10:04:53.720Z,27.00
2023-04-20T10:05:53.708Z,27.02
2023-04-20T10:06:53.710Z,26.95
2023-04-20T10:07:53.714Z,26.99
2023-04-20T10:08:53.710Z,26.97
2023-04-20T10:09:53.724Z,27.03
2023-04-20T10:10:53.711Z,26.95
2023-04-20T10:11:55.147Z,26.95
2023-04-20T10:12:53.709Z,26.95
2023-04-20T10:13:53.715Z,27.00
2023-04-20T10:14:53.707Z,27.00
2023-04-20T10:15:53.807Z,26.95
2023-04-20T10:16:53.783Z,27.02
2023-04-20T10:17:53.874Z,27.00
2023-04-20T10:18:53.867Z,26.99
2023-04-20T10:19:53.714Z,26.99
2023-04-20T10:20:53.704Z,27.00
2023-04-20T10:21:53.714Z,27.00
2023-04-20T10:22:53.707Z,26.95
2023-04-20T10:23:53.722Z,26.94
2023-04-20T10:24:53.710Z,27.03
2023-04-20T10:25:53.716Z,27.04
2023-04-20T10:26:53.707Z,26.94
2023-04-20T10:27:53.712Z,26.95
2023-04-20T10:28:53.705Z,26.92
2023-04-20T10:29:53.715Z,26.99
2023-04-20T10:30:53.844Z,26.99
2023-04-20T10:31:53.736Z,27.04
2023-04-20T10:32:53.781Z,27.02
2023-04-20T10:33:53.726Z,27.02
2023-04-20T10:34:53.707Z,27.04
2023-04-20T10:35:53.709Z,27.07
2023-04-20T10:36:53.707Z,27.06
2023-04-20T10:37:53.712Z,27.07
2023-04-20T10:38:53.703Z,27.07
2023-04-20T10:39:53.711Z,27.06
2023-04-20T10:40:53.706Z,27.06
2023-04-20T10:41:53.724Z,26.99
2023-04-20T10:42:53.709Z,27.04
2023-04-20T10:43:53.717Z,27.02
2023-04-20T10:44:53.761Z,27.06
2023-04-20T10:45:53.766Z,27.07
2023-04-20T10:46:53.810Z,27.04
2023-04-20T10:47:53.797Z,27.02
2023-04-20T10:48:53.704Z,27.04
2023-04-20T10:49:53.719Z,27.06
2023-04-20T10:50:53.706Z,27.07
2023-04-20T10:51:55.136Z,27.07
2023-04-20T10:52:53.704Z,27.12
2023-04-20T10:53:53.712Z,27.13
2023-04-20T10:54:53.703Z,27.04
2023-04-20T10:55:53.710Z,27.10
2023-04-20T10:56:53.712Z,27.12
2023-04-20T10:57:53.715Z,27.02
2023-04-20T10:58:53.709Z,27.00
2023-04-20T10:59:53.716Z,27.03
2023-04-20T11:00:53.704Z,27.12
2023-04-20T11:01:53.740Z,27.03
2023-04-20T11:02:53.888Z,27.14
2023-04-20T11:03:53.842Z,27.13
2023-04-20T11:04:53.754Z,27.09
2023-04-20T11:05:53.715Z,27.12
2023-04-20T11:06:53.716Z,27.06
2023-04-20T11:07:53.707Z,27.13
2023-04-20T11:08:53.714Z,27.18
2023-04-20T11:09:53.709Z,27.14
2023-04-20T11:10:53.704Z,27.18
2023-04-20T11:11:53.708Z,27.13
2023-04-20T11:12:53.704Z,27.14
2023-04-20T11:13:53.712Z,27.18
2023-04-20T11:14:53.696Z,27.12
2023-04-20T11:15:53.716Z,27.13
2023-04-20T11:16:53.831Z,27.17
2023-04-20T11:17:53.734Z,27.10
2023-04-20T11:18:53.733Z,27.10
2023-04-20T11:19:53.795Z,27.12
2023-04-20T11:20:53.699Z,27.13
2023-04-20T11:21:53.707Z,27.12
2023-04-20T11:22:54.813Z,27.14
2023-04-20T11:23:53.714Z,27.10
2023-04-20T11:24:53.699Z,27.10
2023-04-20T11:25:53.737Z,27.06
2023-04-20T11:26:53.697Z,27.13
2023-04-20T11:27:53.703Z,27.13
2023-04-20T11:28:55.420Z,27.14
2023-04-20T11:29:53.718Z,27.10
2023-04-20T11:30:53.704Z,27.19
2023-04-20T11:31:53.784Z,27.13
2023-04-20T11:32:53.820Z,27.17
2023-04-20T11:33:53.734Z,27.13
2023-04-20T11:35:03.268Z,27.13
2023-04-20T11:35:53.730Z,27.22
2023-04-20T11:36:53.704Z,27.10
2023-04-20T11:37:53.762Z,27.14
2023-04-20T11:38:53.702Z,27.18
2023-04-20T11:39:53.704Z,27.09
2023-04-20T11:40:53.712Z,27.09
2023-04-20T11:41:53.724Z,27.13
2023-04-20T11:42:53.698Z,27.17
2023-04-20T11:43:53.703Z,27.07
2023-04-20T11:44:53.697Z,27.17
2023-04-20T11:45:53.732Z,27.10
2023-04-20T11:46:53.697Z,27.13
2023-04-20T11:47:53.714Z,27.07
2023-04-20T11:48:53.704Z,27.18
2023-04-20T11:49:53.706Z,27.10
2023-04-20T11:50:53.698Z,27.13
2023-04-20T11:51:53.734Z,27.12
2023-04-20T11:52:53.700Z,27.14
2023-04-20T11:53:53.705Z,27.10
2023-04-20T11:54:53.701Z,27.14
2023-04-20T11:55:53.702Z,27.18
2023-04-20T11:56:53.697Z,27.09
2023-04-20T11:57:53.700Z,27.13
2023-04-20T11:58:53.695Z,27.13
2023-04-20T11:59:53.702Z,27.22
2023-04-20T12:00:53.698Z,27.14
2023-04-20T12:01:53.738Z,27.13
2023-04-20T12:02:53.851Z,27.10
2023-04-20T12:03:53.932Z,27.10
2023-04-20T12:04:53.785Z,27.14
2023-04-20T12:05:53.765Z,27.10
2023-04-20T12:06:53.701Z,27.09
2023-04-20T12:07:53.725Z,27.18
2023-04-20T12:08:53.696Z,27.12
2023-04-20T12:09:53.703Z,27.09
2023-04-20T12:10:53.693Z,27.07
2023-04-20T12:11:53.708Z,27.14
2023-04-20T12:12:53.697Z,27.13
2023-04-20T12:13:53.704Z,27.09
2023-04-20T12:14:53.693Z,27.12
2023-04-20T12:15:53.792Z,27.09
2023-04-20T12:16:53.693Z,27.07
2023-04-20T12:17:53.726Z,27.13
2023-04-20T12:18:53.692Z,27.09
2023-04-20T12:19:53.701Z,27.17
2023-04-20T12:20:53.699Z,27.18
2023-04-20T12:21:53.700Z,27.12
2023-04-20T12:22:53.698Z,27.14
2023-04-20T12:23:53.745Z,27.13
2023-04-20T12:24:53.694Z,27.21
2023-04-20T12:25:53.698Z,27.06
2023-04-20T12:26:53.692Z,27.12
2023-04-20T12:27:53.703Z,27.13
2023-04-20T12:28:53.693Z,27.17
2023-04-20T12:29:53.709Z,27.06
2023-04-20T12:30:53.716Z,27.18
2023-04-20T12:31:53.847Z,27.18
2023-04-20T12:32:53.750Z,27.18
2023-04-20T12:33:53.710Z,27.18
2023-04-20T12:34:53.690Z,27.13
2023-04-20T12:35:53.698Z,27.10
2023-04-20T12:36:53.706Z,27.14
2023-04-20T12:37:53.699Z,27.12
2023-04-20T12:38:53.690Z,27.18
2023-04-20T12:39:53.833Z,27.10
2023-04-20T12:40:53.695Z,27.17
2023-04-20T12:41:53.697Z,27.18
2023-04-20T12:42:53.695Z,27.13
2023-04-20T12:43:53.701Z,27.12
2023-04-20T12:44:53.691Z,27.06
2023-04-20T12:45:53.698Z,27.14
2023-04-20T12:46:53.741Z,27.12
2023-04-20T12:47:56.247Z,27.17
2023-04-20T12:48:53.692Z,27.10
2023-04-20T12:49:53.697Z,27.14
2023-04-20T12:50:53.688Z,27.07
2023-04-20T12:51:53.696Z,27.04
2023-04-20T12:52:53.689Z,27.09